Time;durP1;ratioP1;P1;durP2;ratioP2;P2;SDS_P1;SDS_P2;PMS_P1;PMS_P2;Temp;Humidity;BMP_temperature;BMP_pressure;BME280_temperature;BME280_humidity;BME280_pressure;Samples;Min_cycle;Max_cycle;Signal;HPM_P1;HPM_P2
2023/07/24 00:02:09;;;;;;;3.63;2.95;;;19.00;43.60;;;;;;10537068;28;20247;-86
2023/07/24 00:07:11;;;;;;;4.22;2.72;;;18.80;46.20;;;;;;10536792;28;20229;-86
2023/07/24 00:12:14;;;;;;;5.97;2.53;;;18.50;49.10;;;;;;10536858;28;20256;-86
2023/07/24 00:17:16;;;;;;;3.50;2.40;;;18.30;51.10;;;;;;10536693;28;20259;-86
2023/07/24 00:22:19;;;;;;;3.60;2.53;;;18.20;54.90;;;;;;10542331;28;20255;-86
2023/07/24 00:27:21;;;;;;;5.60;2.85;;;18.00;59.20;;;;;;10544088;28;20225;-86
2023/07/24 00:32:24;;;;;;;5.70;3.38;;;17.80;63.10;;;;;;10544530;28;20197;-86
2023/07/24 00:37:27;;;;;;;3.95;2.67;;;17.50;70.20;;;;;;10526531;28;20250;-86
2023/07/24 00:42:29;;;;;;;4.22;3.08;;;17.30;72.80;;;;;;10544273;28;20557;-86
2023/07/24 00:47:32;;;;;;;4.22;3.00;;;17.20;76.40;;;;;;10543885;28;20213;-86
2023/07/24 00:52:35;;;;;;;4.75;3.25;;;17.10;80.50;;;;;;10525454;28;20232;-86
2023/07/24 00:57:38;;;;;;;5.30;3.88;;;17.00;84.70;;;;;;10525445;28;20679;-86
2023/07/24 01:02:40;;;;;;;3.38;2.38;;;17.00;86.60;;;;;;10525163;28;20213;-86
2023/07/24 01:07:46;;;;;;;3.53;2.88;;;17.00;87.80;;;;;;10543202;28;20226;-86
2023/07/24 01:12:59;;;;;;;3.85;2.63;;;16.90;89.20;;;;;;10525565;28;20250;-86
2023/07/24 01:18:10;;;;;;;3.50;2.80;;;16.90;89.60;;;;;;10524658;28;20316;-86
2023/07/24 01:23:29;;;;;;;7.70;3.30;;;17.00;89.80;;;;;;10524334;28;20205;-86
2023/07/24 01:28:31;;;;;;;2.38;2.15;;;16.90;91.00;;;;;;10542409;28;20221;-86
2023/07/24 01:33:35;;;;;;;3.08;2.78;;;17.00;90.70;;;;;;10541134;28;20206;-86
2023/07/24 01:38:38;;;;;;;5.03;3.45;;;17.10;91.10;;;;;;10523624;28;20198;-86
2023/07/24 01:43:41;;;;;;;3.50;2.60;;;17.40;90.20;;;;;;10506632;28;20547;-86
2023/07/24 01:48:43;;;;;;;6.07;3.08;;;17.70;88.70;;;;;;10523443;28;20221;-86
2023/07/24 01:53:46;;;;;;;5.68;2.60;;;17.90;87.50;;;;;;10523037;28;20210;-86
2023/07/24 01:58:48;;;;;;;4.55;2.15;;;17.90;85.70;;;;;;10541277;28;20202;-86
2023/07/24 02:03:51;;;;;;;5.10;2.70;;;18.00;85.50;;;;;;10522069;28;20691;-86
2023/07/24 02:08:54;;;;;;;7.30;3.50;;;18.10;85.00;;;;;;10540454;28;20263;-86
2023/07/24 02:13:56;;;;;;;4.32;3.13;;;18.10;85.50;;;;;;10540635;28;20186;-86
2023/07/24 02:18:59;;;;;;;4.18;2.83;;;18.10;89.20;;;;;;10521874;28;20255;-86
2023/07/24 02:24:01;;;;;;;6.47;3.15;;;18.10;90.10;;;;;;10521966;28;20559;-86
2023/07/24 02:29:06;;;;;;;4.68;3.05;;;18.10;91.20;;;;;;10540016;28;20239;-88
2023/07/24 02:34:08;;;;;;;3.13;2.83;;;18.00;92.50;;;;;;10521496;28;20264;-89
2023/07/24 02:39:11;;;;;;;3.22;2.33;;;18.00;92.10;;;;;;10521232;28;20205;-88
2023/07/24 02:44:13;;;;;;;3.13;2.40;;;18.00;92.50;;;;;;10520225;28;20213;-88
2023/07/24 02:49:16;;;;;;;5.13;3.28;;;18.10;92.30;;;;;;10539023;28;20213;-88
2023/07/24 02:54:18;;;;;;;3.90;2.63;;;18.00;92.30;;;;;;10521201;28;20193;-89
2023/07/24 02:59:21;;;;;;;3.15;2.67;;;18.10;92.50;;;;;;10519773;28;20271;-88
2023/07/24 03:04:24;;;;;;;3.72;3.03;;;18.10;92.60;;;;;;10538518;28;20246;-88
2023/07/24 03:09:26;;;;;;;4.00;3.00;;;18.10;92.00;;;;;;10537452;28;20287;-86
2023/07/24 03:14:29;;;;;;;4.85;3.05;;;18.20;92.30;;;;;;10538338;28;20182;-86
2023/07/24 03:19:32;;;;;;;4.88;3.10;;;18.20;92.90;;;;;;10519386;28;20270;-86
2023/07/24 03:24:35;;;;;;;5.28;2.30;;;18.20;93.60;;;;;;10519217;28;20691;-86
2023/07/24 03:29:39;;;;;;;4.68;3.10;;;18.20;93.60;;;;;;10519126;28;20217;-86
2023/07/24 03:34:42;;;;;;;5.00;2.38;;;18.30;93.00;;;;;;10519259;28;20584;-86
2023/07/24 03:39:45;;;;;;;5.13;2.55;;;18.40;92.90;;;;;;10519383;28;20571;-86
2023/07/24 03:44:47;;;;;;;5.22;2.92;;;18.40;92.60;;;;;;10519291;28;20802;-86
2023/07/24 03:49:50;;;;;;;3.25;2.95;;;18.50;92.50;;;;;;10536737;28;20221;-86
2023/07/24 03:54:53;;;;;;;5.38;2.70;;;18.50;92.40;;;;;;10520467;28;20210;-86
2023/07/24 03:59:55;;;;;;;6.00;3.25;;;18.60;91.50;;;;;;10527208;28;20622;-86
2023/07/24 04:04:58;;;;;;;4.20;2.83;;;18.70;91.40;;;;;;10544805;28;20733;-86
2023/07/24 04:10:00;;;;;;;5.47;2.45;;;18.80;89.40;;;;;;10545272;28;20217;-86
2023/07/24 04:15:03;;;;;;;3.90;2.67;;;18.90;89.00;;;;;;10545390;28;20190;-86
2023/07/24 04:20:07;;;;;;;4.90;2.55;;;19.00;86.60;;;;;;10544599;28;20209;-86
2023/07/24 04:25:09;;;;;;;4.40;3.00;;;19.10;85.90;;;;;;10544981;28;20216;-86
2023/07/24 04:30:12;;;;;;;4.40;3.00;;;19.20;86.90;;;;;;10544210;28;20217;-86
2023/07/24 04:35:14;;;;;;;3.63;2.95;;;19.20;85.90;;;;;;10544507;28;20342;-86
2023/07/24 04:40:17;;;;;;;10.50;3.65;;;19.30;85.70;;;;;;10526124;28;20206;-86
2023/07/24 04:45:20;;;;;;;8.45;3.25;;;19.20;86.90;;;;;;10525881;28;20201;-86
2023/07/24 04:50:25;;;;;;;8.95;3.40;;;19.20;88.20;;;;;;10543372;28;20256;-86
2023/07/24 04:55:28;;;;;;;4.10;2.90;;;19.20;88.20;;;;;;10543830;28;20231;-86
2023/07/24 05:00:30;;;;;;;8.57;3.05;;;19.20;89.60;;;;;;10525169;28;20206;-86
2023/07/24 05:05:33;;;;;;;8.60;3.15;;;19.20;89.40;;;;;;10541607;28;20230;-88
2023/07/24 05:10:36;;;;;;;8.25;3.42;;;19.30;90.60;;;;;;10542327;28;20218;-88
2023/07/24 05:15:38;;;;;;;4.68;2.65;;;19.40;87.90;;;;;;10542581;28;20545;-88
2023/07/24 05:20:46;;;;;;;4.85;2.60;;;19.50;84.70;;;;;;10524775;28;20197;-89
2023/07/24 05:25:57;;;;;;;6.45;3.08;;;19.60;88.30;;;;;;10524237;28;20618;-88
2023/07/24 05:31:02;;;;;;;6.55;2.95;;;19.70;86.90;;;;;;10524736;28;20186;-88
2023/07/24 05:36:05;;;;;;;6.50;3.10;;;19.70;88.00;;;;;;10524074;28;20206;-89
2023/07/24 05:41:07;;;;;;;7.25;3.85;;;19.80;91.30;;;;;;10541827;28;20255;-89
2023/07/24 05:46:10;;;;;;;6.68;3.38;;;19.90;91.50;;;;;;10541826;28;20553;-89
2023/07/24 05:51:12;;;;;;;3.55;3.10;;;20.10;91.90;;;;;;10523769;28;20243;-89
2023/07/24 05:56:15;;;;;;;5.47;3.72;;;20.20;90.80;;;;;;10540921;28;20618;-89
2023/07/24 06:01:17;;;;;;;12.93;3.88;;;20.40;88.90;;;;;;10540584;28;20565;-88
2023/07/24 06:06:20;;;;;;;11.05;3.50;;;20.60;85.20;;;;;;10522884;28;20588;-88
2023/07/24 06:11:23;;;;;;;5.03;3.83;;;20.90;82.40;;;;;;10540832;28;20197;-89
2023/07/24 06:16:25;;;;;;;5.15;3.50;;;21.00;76.70;;;;;;10522085;28;20232;-89
2023/07/24 06:21:28;;;;;;;9.32;3.78;;;21.10;75.60;;;;;;10539518;28;20239;-89
2023/07/24 06:26:30;;;;;;;4.50;3.40;;;21.30;74.90;;;;;;10539624;28;20267;-89
2023/07/24 06:31:33;;;;;;;10.10;4.18;;;21.40;70.70;;;;;;10540331;28;20189;-88
2023/07/24 06:36:36;;;;;;;7.60;4.00;;;21.50;70.30;;;;;;10521123;28;20266;-88
2023/07/24 06:41:38;;;;;;;6.40;3.20;;;21.60;69.20;;;;;;10539525;28;20238;-88
2023/07/24 06:46:41;;;;;;;10.30;3.90;;;21.90;65.20;;;;;;10538516;28;20213;-88
2023/07/24 06:51:44;;;;;;;6.10;3.53;;;22.10;64.80;;;;;;10538034;28;20219;-88
2023/07/24 06:56:46;;;;;;;10.38;4.28;;;22.30;61.70;;;;;;10520448;28;20202;-88
2023/07/24 07:01:49;;;;;;;14.30;4.07;;;22.50;58.40;;;;;;10521018;28;20611;-88
2023/07/24 07:06:51;;;;;;;5.85;3.17;;;22.70;55.70;;;;;;10519609;28;20275;-88
2023/07/24 07:11:54;;;;;;;11.13;3.78;;;22.80;52.20;;;;;;10538601;28;20190;-88
2023/07/24 07:16:56;;;;;;;6.68;4.22;;;22.90;51.20;;;;;;10537733;28;20201;-88
2023/07/24 07:21:59;;;;;;;9.63;4.35;;;23.00;49.10;;;;;;10538245;28;20231;-88
2023/07/24 07:27:03;;;;;;;5.13;3.63;;;23.10;49.50;;;;;;10537350;28;20228;-88
2023/07/24 07:32:06;;;;;;;4.97;3.55;;;23.20;48.70;;;;;;10537449;28;20544;-88
2023/07/24 07:37:08;;;;;;;2.53;2.10;;;23.40;46.00;;;;;;10519672;28;20197;-88
2023/07/24 07:42:11;;;;;;;4.68;3.65;;;23.50;45.90;;;;;;10519268;28;20616;-88
2023/07/24 07:47:20;;;;;;;3.00;2.10;;;23.50;47.30;;;;;;10537627;28;20217;-89
2023/07/24 07:52:22;;;;;;;2.20;1.77;;;23.50;41.50;;;;;;10519566;28;20193;-88
2023/07/24 07:57:25;;;;;;;6.95;2.42;;;23.50;41.90;;;;;;10519071;28;20564;-88
2023/07/24 08:02:27;;;;;;;5.03;2.70;;;23.50;44.20;;;;;;10554952;28;20270;-88
2023/07/24 08:07:31;;;;;;;3.20;2.45;;;23.80;43.30;;;;;;10578169;28;20600;-89
2023/07/24 08:12:33;;;;;;;7.57;2.65;;;24.10;39.50;;;;;;10543494;28;20193;-89
2023/07/24 08:17:36;;;;;;;2.30;1.90;;;24.30;39.80;;;;;;10578201;28;20204;-88
2023/07/24 08:22:39;;;;;;;3.47;2.78;;;24.50;36.70;;;;;;10578050;28;20257;-88
2023/07/24 08:27:43;;;;;;;5.75;3.30;;;24.70;39.70;;;;;;10560207;28;20229;-88
2023/07/24 08:33:05;;;;;;;5.05;2.20;;;24.80;36.10;;;;;;10560450;28;20265;-88
2023/07/24 08:38:08;;;;;;;3.92;1.92;;;25.10;37.00;;;;;;10578610;28;20201;-88
2023/07/24 08:43:13;;;;;;;7.38;4.30;;;25.40;32.80;;;;;;10583577;28;20193;-88
2023/07/24 08:48:17;;;;;;;3.60;3.10;;;25.50;33.70;;;;;;10586351;28;20239;-89
2023/07/24 08:53:20;;;;;;;9.65;3.95;;;25.50;31.70;;;;;;10567544;28;20201;-88
2023/07/24 08:58:23;;;;;;;5.63;3.65;;;25.50;33.90;;;;;;10584852;28;20234;-88
2023/07/24 09:03:26;;;;;;;4.55;2.20;;;25.80;33.10;;;;;;10567102;28;20200;-89
2023/07/24 09:08:31;;;;;;;3.13;2.38;;;25.90;31.10;;;;;;10585502;28;20262;-88
2023/07/24 09:13:36;;;;;;;4.72;2.55;;;25.90;28.00;;;;;;10567176;28;20205;-88
2023/07/24 09:18:43;;;;;;;2.42;2.13;;;25.80;28.30;;;;;;10584217;28;20208;-89
2023/07/24 09:23:45;;;;;;;4.40;3.22;;;25.90;26.80;;;;;;10585305;28;20538;-88
2023/07/24 09:28:52;;;;;;;2.50;2.25;;;25.80;27.60;;;;;;10567048;28;20212;-88
2023/07/24 09:33:55;;;;;;;5.32;3.03;;;26.00;27.00;;;;;;10549734;28;20205;-88
2023/07/24 09:39:02;;;;;;;3.78;2.95;;;26.20;27.30;;;;;;10583548;28;20213;-89
2023/07/24 09:44:06;;;;;;;2.05;1.77;;;26.10;27.10;;;;;;10584253;28;20196;-89
2023/07/24 09:49:09;;;;;;;2.40;2.20;;;25.90;24.60;;;;;;10582920;28;20699;-88
2023/07/24 09:54:40;;;;;;;2.85;2.00;;;25.70;25.50;;;;;;10581775;28;20196;-89
2023/07/24 09:59:43;;;;;;;6.22;2.60;;;25.60;26.00;;;;;;10564721;28;20209;-89
2023/07/24 10:04:47;;;;;;;2.40;2.05;;;25.70;26.80;;;;;;10564719;28;20209;-89
2023/07/24 10:09:50;;;;;;;3.45;2.08;;;25.80;25.90;;;;;;10583097;28;20604;-89
2023/07/24 10:14:55;;;;;;;2.97;2.67;;;25.80;25.90;;;;;;10564908;28;20197;-89
2023/07/24 10:20:03;;;;;;;3.13;2.60;;;25.80;25.60;;;;;;10563760;28;20205;-88
2023/07/24 10:25:06;;;;;;;5.28;2.58;;;26.10;26.00;;;;;;10564049;28;20201;-88
2023/07/24 10:30:09;;;;;;;2.55;2.33;;;26.20;25.40;;;;;;10582206;28;20274;-89
2023/07/24 10:35:14;;;;;;;2.80;2.40;;;26.30;24.30;;;;;;10563367;28;20205;-88
2023/07/24 10:40:21;;;;;;;3.10;1.95;;;26.20;24.10;;;;;;10581816;28;20310;-89
2023/07/24 10:45:23;;;;;;;3.10;2.30;;;26.30;23.40;;;;;;10581002;28;20265;-88
2023/07/24 10:50:36;;;;;;;3.63;2.72;;;26.30;23.60;;;;;;10580210;28;20221;-89
2023/07/24 10:55:39;;;;;;;2.80;2.45;;;26.20;23.50;;;;;;10563489;28;20185;-85
2023/07/24 11:00:43;;;;;;;6.78;2.95;;;26.00;24.40;;;;;;10562391;28;20239;-86
2023/07/24 11:05:47;;;;;;;2.90;2.60;;;26.20;25.40;;;;;;10580667;28;20250;-86
2023/07/24 11:10:52;;;;;;;3.50;2.92;;;26.30;24.00;;;;;;10562989;28;20250;-86
2023/07/24 11:15:55;;;;;;;2.67;2.20;;;26.40;22.80;;;;;;10562279;28;20238;-86
2023/07/24 11:20:58;;;;;;;3.15;2.45;;;26.60;23.20;;;;;;10561996;28;20242;-88
2023/07/24 11:26:01;;;;;;;4.57;2.88;;;26.30;22.20;;;;;;10580589;28;20246;-88
2023/07/24 11:31:03;;;;;;;2.75;2.50;;;26.10;23.70;;;;;;10580083;28;20698;-88
2023/07/24 11:36:07;;;;;;;5.20;3.38;;;26.00;23.20;;;;;;10580104;28;20193;-88
2023/07/24 11:41:10;;;;;;;3.20;2.47;;;26.00;23.60;;;;;;10579926;28;20201;-88
2023/07/24 11:46:23;;;;;;;4.22;2.60;;;25.90;23.30;;;;;;10579024;28;20572;-88
2023/07/24 11:51:26;;;;;;;3.53;3.00;;;26.00;24.10;;;;;;10561878;28;20221;-88
2023/07/24 11:56:31;;;;;;;2.97;2.67;;;26.20;23.90;;;;;;10579586;28;20197;-87
2023/07/24 12:01:33;;;;;;;6.45;2.33;;;26.20;23.30;;;;;;10578759;28;20257;-88
2023/07/24 12:06:37;;;;;;;3.13;2.83;;;26.30;23.30;;;;;;10560694;28;20358;-88
2023/07/24 12:11:42;;;;;;;6.32;3.15;;;26.50;22.40;;;;;;10560704;28;20274;-88
2023/07/24 12:16:47;;;;;;;3.13;2.50;;;26.60;24.20;;;;;;10581673;28;20197;-87
2023/07/24 12:21:50;;;;;;;3.10;2.42;;;26.70;21.90;;;;;;10587531;28;20238;-88
2023/07/24 12:26:52;;;;;;;2.83;2.30;;;26.80;21.60;;;;;;10587444;28;20222;-88
2023/07/24 12:31:55;;;;;;;4.80;3.20;;;26.60;21.00;;;;;;10587359;28;20225;-88
2023/07/24 12:36:57;;;;;;;3.10;2.47;;;26.70;22.60;;;;;;10568556;28;20254;-88
2023/07/24 12:42:00;;;;;;;3.25;2.80;;;26.90;20.90;;;;;;10586959;28;20250;-88
2023/07/24 12:47:04;;;;;;;6.03;3.38;;;27.00;21.40;;;;;;10586881;28;20193;-88
2023/07/24 12:52:07;;;;;;;3.25;2.85;;;27.20;21.20;;;;;;10567503;28;20217;-88
2023/07/24 12:57:10;;;;;;;3.20;2.90;;;27.30;20.00;;;;;;10568169;28;20614;-88
2023/07/24 13:02:12;;;;;;;4.10;3.10;;;27.20;19.80;;;;;;10568359;28;20193;-88
2023/07/24 13:07:15;;;;;;;3.17;2.33;;;27.20;20.30;;;;;;10585638;28;20277;-88
2023/07/24 13:12:18;;;;;;;4.32;2.80;;;27.20;19.90;;;;;;10584618;28;20588;-87
2023/07/24 13:17:21;;;;;;;4.40;2.78;;;27.50;19.90;;;;;;10567530;28;20551;-87
2023/07/24 13:22:24;;;;;;;3.17;2.58;;;27.50;19.10;;;;;;10584905;28;20204;-88
2023/07/24 13:27:26;;;;;;;2.80;2.25;;;27.60;18.40;;;;;;10584144;28;20679;-88
2023/07/24 13:32:29;;;;;;;3.00;2.45;;;27.80;17.90;;;;;;10584774;28;20577;-88
2023/07/24 13:37:32;;;;;;;4.20;2.72;;;27.70;17.50;;;;;;10566373;28;20557;-87
2023/07/24 13:42:35;;;;;;;2.47;2.28;;;27.30;17.60;;;;;;10583298;28;20201;-87
2023/07/24 13:47:37;;;;;;;2.95;2.00;;;27.20;17.80;;;;;;10548982;28;20655;-88
2023/07/24 13:52:40;;;;;;;3.88;2.45;;;27.10;18.00;;;;;;10565440;28;20278;-88
2023/07/24 13:57:42;;;;;;;3.85;2.55;;;27.00;18.00;;;;;;10582680;28;20243;-88
2023/07/24 14:02:45;;;;;;;4.50;2.53;;;27.10;17.30;;;;;;10548210;28;20231;-88
2023/07/24 14:07:47;;;;;;;5.10;3.40;;;27.10;17.40;;;;;;10583140;28;20646;-88
2023/07/24 14:12:50;;;;;;;5.53;3.17;;;27.10;16.30;;;;;;10582982;28;20217;-88
2023/07/24 14:17:52;;;;;;;7.25;4.10;;;27.00;17.20;;;;;;10581924;28;20197;-88
2023/07/24 14:22:55;;;;;;;2.13;1.73;;;27.40;17.00;;;;;;10563733;28;20231;-88
2023/07/24 14:27:57;;;;;;;4.10;3.60;;;27.20;15.90;;;;;;10582446;28;20200;-88
2023/07/24 14:33:00;;;;;;;3.03;2.72;;;27.30;16.30;;;;;;10581733;28;20224;-88
2023/07/24 14:38:03;;;;;;;2.97;2.65;;;27.40;16.70;;;;;;10563283;28;20614;-87
2023/07/24 14:43:05;;;;;;;8.55;4.50;;;27.30;16.40;;;;;;10581913;28;20660;-87
2023/07/24 14:48:09;;;;;;;6.25;4.32;;;27.30;16.00;;;;;;10580615;28;20209;-88
2023/07/24 14:53:12;;;;;;;10.20;4.68;;;27.20;16.50;;;;;;10563666;28;20234;-88
2023/07/24 14:58:14;;;;;;;4.95;3.97;;;27.50;16.00;;;;;;10580723;28;20732;-88
2023/07/24 15:03:17;;;;;;;6.63;4.55;;;27.50;16.30;;;;;;10581100;28;20197;-87
2023/07/24 15:08:20;;;;;;;4.57;2.83;;;27.40;15.60;;;;;;10581004;28;20217;-88
2023/07/24 15:13:22;;;;;;;4.85;3.05;;;27.40;16.10;;;;;;10581034;28;20193;-88
2023/07/24 15:18:25;;;;;;;3.33;2.80;;;27.30;16.50;;;;;;10580809;28;20197;-87
2023/07/24 15:23:27;;;;;;;4.97;4.05;;;27.20;16.60;;;;;;10562271;28;20205;-88
2023/07/24 15:28:31;;;;;;;10.65;4.57;;;27.10;17.20;;;;;;10580334;28;20222;-88
2023/07/24 15:33:34;;;;;;;4.45;3.53;;;27.10;17.40;;;;;;10562437;28;20238;-88
2023/07/24 15:38:36;;;;;;;3.97;3.00;;;27.20;17.40;;;;;;10561642;28;20205;-88
2023/07/24 15:43:39;;;;;;;8.80;4.28;;;27.50;16.80;;;;;;10580289;28;20242;-88
2023/07/24 15:48:41;;;;;;;5.63;3.60;;;27.70;17.70;;;;;;10579313;28;20209;-87
2023/07/24 15:53:45;;;;;;;8.43;4.80;;;27.80;16.70;;;;;;10561478;28;20201;-87
2023/07/24 15:58:49;;;;;;;5.65;3.42;;;28.00;16.80;;;;;;10580738;28;20222;-88
2023/07/24 16:03:51;;;;;;;8.38;4.75;;;28.00;16.30;;;;;;10580958;28;20193;-88
2023/07/24 16:08:54;;;;;;;6.78;5.05;;;28.00;16.20;;;;;;10578118;28;20599;-88
2023/07/24 16:13:57;;;;;;;3.80;3.05;;;28.10;16.30;;;;;;10560602;28;20197;-88
2023/07/24 16:19:17;;;;;;;8.52;5.22;;;28.20;15.60;;;;;;10560127;28;20265;-88
2023/07/24 16:24:20;;;;;;;3.72;2.88;;;28.20;16.50;;;;;;10579255;28;20196;-88
2023/07/24 16:29:23;;;;;;;3.40;3.05;;;27.90;16.10;;;;;;10578619;28;20598;-88
2023/07/24 16:34:25;;;;;;;3.88;2.67;;;27.70;16.40;;;;;;10560723;28;20241;-88
2023/07/24 16:39:31;;;;;;;3.80;3.30;;;27.30;17.00;;;;;;10560468;28;20234;-88
2023/07/24 16:44:34;;;;;;;8.13;5.28;;;27.10;17.90;;;;;;10578578;28;20561;-88
2023/07/24 16:49:39;;;;;;;4.55;3.95;;;26.90;18.70;;;;;;10559266;28;20225;-88
2023/07/24 16:54:41;;;;;;;9.80;2.97;;;26.50;18.30;;;;;;10559900;28;20197;-88
2023/07/24 16:59:44;;;;;;;7.25;4.63;;;26.30;18.40;;;;;;10578305;28;20269;-88
2023/07/24 17:04:46;;;;;;;6.57;4.38;;;26.20;18.90;;;;;;10582967;28;20577;-88
2023/07/24 17:09:49;;;;;;;6.35;3.60;;;26.10;19.20;;;;;;10585405;28;20240;-88
2023/07/24 17:14:51;;;;;;;3.47;2.75;;;26.00;19.20;;;;;;10585104;28;20197;-88
2023/07/24 17:19:54;;;;;;;6.28;3.83;;;25.90;19.20;;;;;;10584826;28;20213;-88
2023/07/24 17:24:57;;;;;;;5.97;4.03;;;25.90;20.10;;;;;;10584298;28;20265;-88
2023/07/24 17:30:00;;;;;;;6.03;5.10;;;25.80;19.60;;;;;;10584934;28;20205;-88
2023/07/24 17:35:03;;;;;;;6.57;5.03;;;25.80;20.80;;;;;;10584886;28;20227;-88
2023/07/24 17:40:07;;;;;;;7.10;4.97;;;25.80;20.80;;;;;;10584218;28;20619;-87
2023/07/24 17:45:10;;;;;;;4.00;3.50;;;25.70;20.90;;;;;;10566348;28;20209;-88
2023/07/24 17:50:12;;;;;;;4.22;3.63;;;25.70;20.70;;;;;;10566236;28;20220;-88
2023/07/24 17:55:15;;;;;;;7.75;6.07;;;25.60;20.60;;;;;;10583554;28;20566;-88
2023/07/24 18:00:18;;;;;;;4.85;4.10;;;25.70;21.60;;;;;;10584309;28;20196;-89
2023/07/24 18:05:21;;;;;;;5.13;3.97;;;25.70;21.20;;;;;;10582529;28;20209;-88
2023/07/24 18:10:23;;;;;;;3.78;3.13;;;25.70;21.20;;;;;;10582577;28;20221;-89
2023/07/24 18:15:26;;;;;;;5.68;3.97;;;25.50;20.90;;;;;;10563624;28;20333;-88
2023/07/24 18:20:29;;;;;;;5.13;4.47;;;25.40;22.00;;;;;;10564426;28;20213;-88
2023/07/24 18:25:31;;;;;;;5.97;4.32;;;25.30;23.00;;;;;;10582909;28;20262;-88
2023/07/24 18:30:34;;;;;;;5.03;4.13;;;25.10;22.30;;;;;;10582356;28;20277;-88
2023/07/24 18:35:36;;;;;;;5.50;4.30;;;25.00;22.90;;;;;;10581634;28;20227;-88
2023/07/24 18:40:39;;;;;;;6.53;5.00;;;24.90;22.70;;;;;;10563681;28;20262;-88
2023/07/24 18:45:42;;;;;;;7.78;6.00;;;24.80;24.00;;;;;;10563173;28;20234;-87
2023/07/24 18:50:44;;;;;;;9.27;6.07;;;24.70;24.40;;;;;;10581670;28;20273;-88
2023/07/24 18:55:47;;;;;;;6.70;4.93;;;24.60;25.20;;;;;;10562279;28;20200;-88
2023/07/24 19:00:49;;;;;;;10.52;6.60;;;24.40;25.40;;;;;;10581565;28;20215;-87
2023/07/24 19:05:52;;;;;;;10.73;6.78;;;24.30;26.20;;;;;;10580732;28;20788;-88
2023/07/24 19:10:55;;;;;;;8.88;6.25;;;24.10;27.90;;;;;;10581387;28;20205;-87
2023/07/24 19:15:58;;;;;;;12.75;5.85;;;23.90;28.70;;;;;;10580302;28;20205;-88
2023/07/24 19:21:02;;;;;;;7.95;5.45;;;23.70;30.00;;;;;;10562344;28;20702;-87
2023/07/24 19:26:05;;;;;;;8.93;6.05;;;23.40;30.40;;;;;;10580552;28;20661;-87
2023/07/24 19:31:07;;;;;;;14.43;6.68;;;23.20;34.10;;;;;;10579866;28;20221;-87
2023/07/24 19:36:10;;;;;;;6.13;4.93;;;23.00;35.90;;;;;;10562450;28;20943;-87
2023/07/24 19:41:12;;;;;;;7.53;5.35;;;22.90;36.10;;;;;;10561394;28;20226;-88
2023/07/24 19:46:15;;;;;;;4.63;4.10;;;23.00;34.40;;;;;;10561689;28;20196;-87
2023/07/24 19:51:18;;;;;;;6.25;4.18;;;23.10;30.60;;;;;;10560882;28;20565;-87
2023/07/24 19:56:21;;;;;;;7.68;5.25;;;23.30;31.00;;;;;;10580204;28;20193;-87
2023/07/24 20:01:25;;;;;;;4.25;3.78;;;23.40;30.30;;;;;;10561514;28;20556;-88
2023/07/24 20:06:28;;;;;;;7.82;5.47;;;23.40;29.70;;;;;;10561010;28;20282;-88
2023/07/24 20:11:31;;;;;;;6.32;4.65;;;23.40;32.00;;;;;;10564973;28;20212;-88
2023/07/24 20:16:34;;;;;;;10.15;5.45;;;23.40;32.30;;;;;;10561435;28;20205;-87
2023/07/24 20:21:37;;;;;;;7.00;4.38;;;23.30;34.00;;;;;;10543899;28;20208;-88
2023/07/24 20:26:40;;;;;;;7.00;4.57;;;23.20;33.40;;;;;;10578759;28;20209;-87
2023/07/24 20:31:42;;;;;;;11.07;6.35;;;23.10;36.30;;;;;;10560485;28;20220;-87
2023/07/24 20:36:45;;;;;;;9.13;5.00;;;22.90;38.80;;;;;;10579225;28;20262;-87
2023/07/24 20:41:47;;;;;;;10.55;6.13;;;22.60;41.40;;;;;;10586693;28;20197;-87
2023/07/24 20:46:50;;;;;;;10.32;5.35;;;22.30;45.20;;;;;;10586078;28;20209;-87
2023/07/24 20:51:52;;;;;;;8.80;4.47;;;22.10;47.30;;;;;;10551140;28;20217;-87
2023/07/24 20:56:55;;;;;;;7.22;5.20;;;22.00;48.60;;;;;;10585820;28;20201;-88
2023/07/24 21:01:57;;;;;;;6.57;4.25;;;21.80;51.40;;;;;;10586054;28;20612;-87
2023/07/24 21:07:02;;;;;;;10.77;6.32;;;21.60;54.80;;;;;;10585099;28;20266;-88
2023/07/24 21:12:05;;;;;;;9.23;5.93;;;21.30;62.60;;;;;;10567214;28;20645;-87
2023/07/24 21:17:08;;;;;;;9.80;5.18;;;21.10;64.80;;;;;;10567454;28;20246;-87
2023/07/24 21:22:10;;;;;;;3.50;3.20;;;21.00;68.60;;;;;;10585420;28;20252;-87
2023/07/24 21:27:13;;;;;;;6.78;3.25;;;21.00;65.80;;;;;;10586000;28;20238;-88
2023/07/24 21:32:16;;;;;;;4.15;3.00;;;21.10;65.20;;;;;;10584293;28;20229;-87
2023/07/24 21:37:19;;;;;;;4.85;2.75;;;20.90;74.50;;;;;;10584498;28;20193;-88
2023/07/24 21:42:22;;;;;;;5.80;2.15;;;20.30;90.80;;;;;;10584496;28;20205;-89
2023/07/24 21:47:26;;;;;;;5.05;2.78;;;20.10;89.50;;;;;;10565660;28;20209;-89
2023/07/24 21:52:28;;;;;;;4.00;1.67;;;19.90;91.70;;;;;;10584399;28;20208;-89
2023/07/24 21:57:31;;;;;;;2.60;2.15;;;19.80;95.90;;;;;;10564995;28;20200;-89
2023/07/24 22:02:33;;;;;;;3.15;2.53;;;19.30;99.10;;;;;;10583841;28;20197;-89
2023/07/24 22:07:36;;;;;;;3.33;1.92;;;18.90;99.90;;;;;;10582594;28;20262;-89
2023/07/24 22:12:38;;;;;;;4.30;2.45;;;18.70;99.90;;;;;;10583128;28;20220;-88
2023/07/24 22:17:41;;;;;;;3.15;2.30;;;18.60;99.90;;;;;;10564688;28;20262;-89
2023/07/24 22:22:44;;;;;;;3.25;1.60;;;18.60;99.90;;;;;;10582719;28;20253;-89
2023/07/24 22:27:46;;;;;;;6.35;2.17;;;18.40;99.90;;;;;;10582264;28;20205;-88
2023/07/24 22:32:49;;;;;;;2.63;2.00;;;18.30;99.90;;;;;;10563829;28;20220;-89
2023/07/24 22:37:52;;;;;;;3.40;2.42;;;18.30;99.90;;;;;;10582151;28;20197;-89
2023/07/24 22:42:54;;;;;;;2.90;2.28;;;18.20;99.90;;;;;;10563180;28;20197;-88
2023/07/24 22:47:57;;;;;;;4.22;2.25;;;18.00;99.90;;;;;;10581715;28;20193;-88
2023/07/24 22:53:00;;;;;;;2.42;1.60;;;17.90;99.90;;;;;;10581038;28;20564;-89
2023/07/24 22:58:03;;;;;;;4.93;1.50;;;17.80;99.90;;;;;;10581694;28;20250;-89
2023/07/24 23:03:08;;;;;;;4.05;2.15;;;17.70;99.90;;;;;;10561987;28;20205;-89
2023/07/24 23:08:11;;;;;;;3.60;2.45;;;17.60;99.90;;;;;;10581012;28;20236;-89
2023/07/24 23:13:14;;;;;;;3.17;2.10;;;17.50;99.90;;;;;;10545277;28;20278;-89
2023/07/24 23:18:16;;;;;;;3.70;2.80;;;17.50;99.90;;;;;;10580846;28;20189;-89
2023/07/24 23:23:19;;;;;;;3.85;2.92;;;17.70;99.90;;;;;;10562091;28;20258;-88
2023/07/24 23:28:22;;;;;;;3.42;3.03;;;18.10;99.90;;;;;;10580522;28;20574;-89
2023/07/24 23:33:25;;;;;;;5.20;2.75;;;18.40;99.90;;;;;;10579917;28;20586;-89
2023/07/24 23:38:27;;;;;;;2.85;2.63;;;18.70;99.90;;;;;;10580307;28;20193;-89
2023/07/24 23:43:30;;;;;;;2.38;2.03;;;18.90;98.20;;;;;;10580488;28;20197;-88
2023/07/24 23:48:33;;;;;;;3.72;2.10;;;19.10;97.80;;;;;;10580242;28;20193;-89
2023/07/24 23:53:35;;;;;;;2.80;1.80;;;19.40;97.00;;;;;;10561563;28;20274;-88
2023/07/24 23:58:38;;;;;;;3.15;2.22;;;19.60;97.00;;;;;;10580109;28;20185;-88
